Terminal Aerodrome Forecast
Issued by NWS Paducah, KY

Home | Current Version | Previous Version | Text Only | Print | Product List | Glossary On
Versions: 1 2 3 4 5 6 7 8 9 10 11 12 13 14 15 16 17 18 19 20 21 22 23 24
571
FTUS43 KPAH 261101 AAB
TAFPAH
TAF AMD
KPAH 261101Z 2611/2706 VRB04KT P6SM SCT012 BKN050
      TEMPO 2611/2615 BKN010
     FM261500 23010G17KT P6SM BKN035
     FM262300 18003KT P6SM FEW040 BKN250=

USA.gov is the U.S. government's official web portal to all federal, state and local government web resources and services.